sensor_id;sensor_type;location;lat;lon;timestamp;temperature;humidity
23385;DHT22;11865;45.394;10.978;2023-04-24T00:02:13;16.80;99.90
23385;DHT22;11865;45.394;10.978;2023-04-24T00:04:41;16.80;99.90
23385;DHT22;11865;45.394;10.978;2023-04-24T00:07:12;16.80;99.90
23385;DHT22;11865;45.394;10.978;2023-04-24T00:09:40;16.70;99.90
23385;DHT22;11865;45.394;10.978;2023-04-24T00:12:08;16.70;99.90
23385;DHT22;11865;45.394;10.978;2023-04-24T00:14:36;16.70;99.90
23385;DHT22;11865;45.394;10.978;2023-04-24T00:17:03;16.70;99.90
23385;DHT22;11865;45.394;10.978;2023-04-24T00:19:31;16.70;99.90
23385;DHT22;11865;45.394;10.978;2023-04-24T00:21:58;16.70;99.90
23385;DHT22;11865;45.394;10.978;2023-04-24T00:24:26;16.70;99.90
23385;DHT22;11865;45.394;10.978;2023-04-24T00:26:53;16.70;99.90
23385;DHT22;11865;45.394;10.978;2023-04-24T00:29:21;16.60;99.90
23385;DHT22;11865;45.394;10.978;2023-04-24T00:31:48;16.60;99.90
23385;DHT22;11865;45.394;10.978;2023-04-24T00:34:16;16.50;99.90
23385;DHT22;11865;45.394;10.978;2023-04-24T00:36:43;16.50;99.90
23385;DHT22;11865;45.394;10.978;2023-04-24T00:39:10;16.50;99.90
23385;DHT22;11865;45.394;10.978;2023-04-24T00:41:38;16.40;99.90
23385;DHT22;11865;45.394;10.978;2023-04-24T00:44:05;16.40;99.90
23385;DHT22;11865;45.394;10.978;2023-04-24T00:46:33;16.40;99.90
23385;DHT22;11865;45.394;10.978;2023-04-24T00:49:00;16.30;99.90
23385;DHT22;11865;45.394;10.978;2023-04-24T00:51:28;16.30;99.90
23385;DHT22;11865;45.394;10.978;2023-04-24T00:53:58;16.30;99.90
23385;DHT22;11865;45.394;10.978;2023-04-24T00:56:26;16.30;99.90
23385;DHT22;11865;45.394;10.978;2023-04-24T00:58:54;16.30;99.90
23385;DHT22;11865;45.394;10.978;2023-04-24T01:01:23;16.20;99.90
23385;DHT22;11865;45.394;10.978;2023-04-24T01:03:51;16.20;99.90
23385;DHT22;11865;45.394;10.978;2023-04-24T01:06:20;16.20;99.90
23385;DHT22;11865;45.394;10.978;2023-04-24T01:08:48;16.20;99.90
23385;DHT22;11865;45.394;10.978;2023-04-24T01:11:17;16.30;99.90
23385;DHT22;11865;45.394;10.978;2023-04-24T01:13:46;16.20;99.90
23385;DHT22;11865;45.394;10.978;2023-04-24T01:16:14;16.30;99.90
23385;DHT22;11865;45.394;10.978;2023-04-24T01:18:44;16.30;99.90
23385;DHT22;11865;45.394;10.978;2023-04-24T01:21:14;16.30;99.90
23385;DHT22;11865;45.394;10.978;2023-04-24T01:23:44;16.40;99.90
23385;DHT22;11865;45.394;10.978;2023-04-24T01:26:17;16.40;99.90
23385;DHT22;11865;45.394;10.978;2023-04-24T01:28:47;16.30;99.90
23385;DHT22;11865;45.394;10.978;2023-04-24T01:31:15;16.30;99.90
23385;DHT22;11865;45.394;10.978;2023-04-24T01:33:43;16.30;99.90
23385;DHT22;11865;45.394;10.978;2023-04-24T01:36:11;16.20;99.90
23385;DHT22;11865;45.394;10.978;2023-04-24T01:38:39;16.10;99.90
23385;DHT22;11865;45.394;10.978;2023-04-24T01:41:06;16.00;99.90
23385;DHT22;11865;45.394;10.978;2023-04-24T01:43:34;16.00;99.90
23385;DHT22;11865;45.394;10.978;2023-04-24T01:46:01;15.90;99.90
23385;DHT22;11865;45.394;10.978;2023-04-24T01:48:29;15.80;99.90
23385;DHT22;11865;45.394;10.978;2023-04-24T01:50:57;15.70;99.90
23385;DHT22;11865;45.394;10.978;2023-04-24T01:53:24;15.80;99.90
23385;DHT22;11865;45.394;10.978;2023-04-24T01:55:52;15.80;99.90
23385;DHT22;11865;45.394;10.978;2023-04-24T01:58:19;15.80;99.90
23385;DHT22;11865;45.394;10.978;2023-04-24T02:00:47;15.80;99.90
23385;DHT22;11865;45.394;10.978;2023-04-24T02:03:14;15.80;99.90
23385;DHT22;11865;45.394;10.978;2023-04-24T02:05:44;15.70;99.90
23385;DHT22;11865;45.394;10.978;2023-04-24T02:08:12;15.60;99.90
23385;DHT22;11865;45.394;10.978;2023-04-24T02:10:39;15.50;99.90
23385;DHT22;11865;45.394;10.978;2023-04-24T02:13:07;15.50;99.90
23385;DHT22;11865;45.394;10.978;2023-04-24T02:15:34;15.50;99.90
23385;DHT22;11865;45.394;10.978;2023-04-24T02:18:03;15.30;99.90
23385;DHT22;11865;45.394;10.978;2023-04-24T02:20:31;15.30;99.90
23385;DHT22;11865;45.394;10.978;2023-04-24T02:23:01;15.30;99.90
23385;DHT22;11865;45.394;10.978;2023-04-24T02:25:28;15.20;99.90
23385;DHT22;11865;45.394;10.978;2023-04-24T02:27:56;15.10;99.90
23385;DHT22;11865;45.394;10.978;2023-04-24T02:30:23;15.10;99.90
23385;DHT22;11865;45.394;10.978;2023-04-24T02:32:51;15.00;99.90
23385;DHT22;11865;45.394;10.978;2023-04-24T02:35:18;14.90;99.90
23385;DHT22;11865;45.394;10.978;2023-04-24T02:37:46;14.90;99.90
23385;DHT22;11865;45.394;10.978;2023-04-24T02:40:14;14.80;99.90
23385;DHT22;11865;45.394;10.978;2023-04-24T02:42:41;14.80;99.90
23385;DHT22;11865;45.394;10.978;2023-04-24T02:45:09;14.70;99.90
23385;DHT22;11865;45.394;10.978;2023-04-24T02:47:37;14.70;99.90
23385;DHT22;11865;45.394;10.978;2023-04-24T02:50:05;14.60;99.90
23385;DHT22;11865;45.394;10.978;2023-04-24T02:52:33;14.60;99.90
23385;DHT22;11865;45.394;10.978;2023-04-24T02:55:00;14.60;99.90
23385;DHT22;11865;45.394;10.978;2023-04-24T02:57:28;14.50;99.90
23385;DHT22;11865;45.394;10.978;2023-04-24T02:59:55;14.60;99.90
23385;DHT22;11865;45.394;10.978;2023-04-24T03:02:22;14.60;99.90
23385;DHT22;11865;45.394;10.978;2023-04-24T03:04:50;14.50;99.90
23385;DHT22;11865;45.394;10.978;2023-04-24T03:07:18;14.50;99.90
23385;DHT22;11865;45.394;10.978;2023-04-24T03:09:47;14.50;99.90
23385;DHT22;11865;45.394;10.978;2023-04-24T03:12:15;14.60;99.90
23385;DHT22;11865;45.394;10.978;2023-04-24T03:14:44;14.60;99.90
23385;DHT22;11865;45.394;10.978;2023-04-24T03:17:12;14.50;99.90
23385;DHT22;11865;45.394;10.978;2023-04-24T03:19:40;14.50;99.90
23385;DHT22;11865;45.394;10.978;2023-04-24T03:22:10;14.50;99.90
23385;DHT22;11865;45.394;10.978;2023-04-24T03:24:41;14.60;99.90
23385;DHT22;11865;45.394;10.978;2023-04-24T03:27:08;14.60;99.90
23385;DHT22;11865;45.394;10.978;2023-04-24T03:29:53;14.60;99.90
23385;DHT22;11865;45.394;10.978;2023-04-24T03:32:27;14.60;99.90
23385;DHT22;11865;45.394;10.978;2023-04-24T03:34:55;14.50;99.90
23385;DHT22;11865;45.394;10.978;2023-04-24T03:37:22;14.50;99.90
23385;DHT22;11865;45.394;10.978;2023-04-24T03:40:01;14.40;99.90
23385;DHT22;11865;45.394;10.978;2023-04-24T03:42:29;14.20;99.90
23385;DHT22;11865;45.394;10.978;2023-04-24T03:44:56;14.20;99.90
23385;DHT22;11865;45.394;10.978;2023-04-24T03:47:29;14.00;99.90
23385;DHT22;11865;45.394;10.978;2023-04-24T03:50:00;14.10;99.90
23385;DHT22;11865;45.394;10.978;2023-04-24T03:52:29;14.10;99.90
23385;DHT22;11865;45.394;10.978;2023-04-24T03:54:56;14.00;99.90
23385;DHT22;11865;45.394;10.978;2023-04-24T03:57:25;14.00;99.90
23385;DHT22;11865;45.394;10.978;2023-04-24T04:00:11;14.00;99.90
23385;DHT22;11865;45.394;10.978;2023-04-24T04:02:43;14.00;99.90
23385;DHT22;11865;45.394;10.978;2023-04-24T04:05:11;14.10;99.90
23385;DHT22;11865;45.394;10.978;2023-04-24T04:07:39;14.10;99.90
23385;DHT22;11865;45.394;10.978;2023-04-24T04:10:07;14.00;99.90
23385;DHT22;11865;45.394;10.978;2023-04-24T04:12:36;14.10;99.90
23385;DHT22;11865;45.394;10.978;2023-04-24T04:15:04;14.10;99.90
23385;DHT22;11865;45.394;10.978;2023-04-24T04:17:34;14.10;99.90
23385;DHT22;11865;45.394;10.978;2023-04-24T04:20:05;14.10;99.90
23385;DHT22;11865;45.394;10.978;2023-04-24T04:22:38;14.10;99.90
23385;DHT22;11865;45.394;10.978;2023-04-24T04:25:12;14.00;99.90
23385;DHT22;11865;45.394;10.978;2023-04-24T04:27:41;14.00;99.90
23385;DHT22;11865;45.394;10.978;2023-04-24T04:30:11;14.00;99.90
23385;DHT22;11865;45.394;10.978;2023-04-24T04:32:48;13.80;99.90
23385;DHT22;11865;45.394;10.978;2023-04-24T04:35:16;13.80;99.90
23385;DHT22;11865;45.394;10.978;2023-04-24T04:37:43;13.90;99.90
23385;DHT22;11865;45.394;10.978;2023-04-24T04:40:27;13.90;99.90
23385;DHT22;11865;45.394;10.978;2023-04-24T04:43:00;13.90;99.90
23385;DHT22;11865;45.394;10.978;2023-04-24T04:45:32;13.90;99.90
23385;DHT22;11865;45.394;10.978;2023-04-24T04:48:27;13.90;99.90
23385;DHT22;11865;45.394;10.978;2023-04-24T04:50:58;13.80;99.90
23385;DHT22;11865;45.394;10.978;2023-04-24T04:53:26;13.80;99.90
23385;DHT22;11865;45.394;10.978;2023-04-24T04:55:54;13.80;99.90
23385;DHT22;11865;45.394;10.978;2023-04-24T04:58:26;13.70;99.90
23385;DHT22;11865;45.394;10.978;2023-04-24T05:00:57;13.70;99.90
23385;DHT22;11865;45.394;10.978;2023-04-24T05:03:30;13.70;99.90
23385;DHT22;11865;45.394;10.978;2023-04-24T05:06:05;13.70;99.90
23385;DHT22;11865;45.394;10.978;2023-04-24T05:08:35;13.70;99.90
23385;DHT22;11865;45.394;10.978;2023-04-24T05:11:05;13.80;99.90
23385;DHT22;11865;45.394;10.978;2023-04-24T05:13:33;13.70;99.90
23385;DHT22;11865;45.394;10.978;2023-04-24T05:16:16;13.70;99.90
23385;DHT22;11865;45.394;10.978;2023-04-24T05:18:44;13.80;99.90
23385;DHT22;11865;45.394;10.978;2023-04-24T05:21:14;13.80;99.90
23385;DHT22;11865;45.394;10.978;2023-04-24T05:23:45;13.80;99.90
23385;DHT22;11865;45.394;10.978;2023-04-24T05:26:17;13.80;99.90
23385;DHT22;11865;45.394;10.978;2023-04-24T05:28:45;13.80;99.90
23385;DHT22;11865;45.394;10.978;2023-04-24T05:31:13;13.80;99.90
23385;DHT22;11865;45.394;10.978;2023-04-24T05:33:40;13.90;99.90
23385;DHT22;11865;45.394;10.978;2023-04-24T05:36:08;13.90;99.90
23385;DHT22;11865;45.394;10.978;2023-04-24T05:38:36;13.90;99.90
23385;DHT22;11865;45.394;10.978;2023-04-24T05:41:04;13.90;99.90
23385;DHT22;11865;45.394;10.978;2023-04-24T05:43:31;14.00;99.90
23385;DHT22;11865;45.394;10.978;2023-04-24T05:45:59;14.00;99.90
23385;DHT22;11865;45.394;10.978;2023-04-24T05:48:27;14.00;99.90
23385;DHT22;11865;45.394;10.978;2023-04-24T05:50:55;14.00;99.90
23385;DHT22;11865;45.394;10.978;2023-04-24T05:53:23;14.00;99.90
23385;DHT22;11865;45.394;10.978;2023-04-24T05:55:50;14.00;99.90
23385;DHT22;11865;45.394;10.978;2023-04-24T05:58:18;14.00;99.90
23385;DHT22;11865;45.394;10.978;2023-04-24T06:00:47;14.00;99.90
23385;DHT22;11865;45.394;10.978;2023-04-24T06:03:15;14.00;99.90
23385;DHT22;11865;45.394;10.978;2023-04-24T06:05:43;14.00;99.90
23385;DHT22;11865;45.394;10.978;2023-04-24T06:08:10;14.00;99.90
23385;DHT22;11865;45.394;10.978;2023-04-24T06:10:39;14.10;99.90
23385;DHT22;11865;45.394;10.978;2023-04-24T06:13:08;14.10;99.90
23385;DHT22;11865;45.394;10.978;2023-04-24T06:15:39;14.10;99.90
23385;DHT22;11865;45.394;10.978;2023-04-24T06:18:11;14.10;99.90
23385;DHT22;11865;45.394;10.978;2023-04-24T06:20:41;14.20;99.90
23385;DHT22;11865;45.394;10.978;2023-04-24T06:23:09;14.20;99.90
23385;DHT22;11865;45.394;10.978;2023-04-24T06:25:37;14.10;99.90
23385;DHT22;11865;45.394;10.978;2023-04-24T06:28:05;14.10;99.90
23385;DHT22;11865;45.394;10.978;2023-04-24T06:30:33;14.10;99.90
23385;DHT22;11865;45.394;10.978;2023-04-24T06:33:00;14.10;99.90
23385;DHT22;11865;45.394;10.978;2023-04-24T06:35:45;14.10;99.90
23385;DHT22;11865;45.394;10.978;2023-04-24T06:38:12;14.10;99.90
23385;DHT22;11865;45.394;10.978;2023-04-24T06:40:39;14.10;99.90
23385;DHT22;11865;45.394;10.978;2023-04-24T06:43:07;14.20;99.90
23385;DHT22;11865;45.394;10.978;2023-04-24T06:45:35;14.20;99.90
23385;DHT22;11865;45.394;10.978;2023-04-24T06:48:02;14.20;99.90
23385;DHT22;11865;45.394;10.978;2023-04-24T06:50:30;14.10;99.90
23385;DHT22;11865;45.394;10.978;2023-04-24T06:52:57;14.10;99.90
23385;DHT22;11865;45.394;10.978;2023-04-24T06:55:25;14.10;99.90
23385;DHT22;11865;45.394;10.978;2023-04-24T06:57:52;14.10;99.90
23385;DHT22;11865;45.394;10.978;2023-04-24T07:00:20;14.10;99.90
23385;DHT22;11865;45.394;10.978;2023-04-24T07:02:47;14.00;99.90
23385;DHT22;11865;45.394;10.978;2023-04-24T07:05:15;14.10;99.90
23385;DHT22;11865;45.394;10.978;2023-04-24T07:07:43;14.20;99.90
23385;DHT22;11865;45.394;10.978;2023-04-24T07:10:11;14.10;99.90
23385;DHT22;11865;45.394;10.978;2023-04-24T07:12:39;14.10;99.90
23385;DHT22;11865;45.394;10.978;2023-04-24T07:15:07;14.10;99.90
23385;DHT22;11865;45.394;10.978;2023-04-24T07:17:35;14.10;99.90
23385;DHT22;11865;45.394;10.978;2023-04-24T07:20:03;14.10;99.90
23385;DHT22;11865;45.394;10.978;2023-04-24T07:22:31;14.30;99.90
23385;DHT22;11865;45.394;10.978;2023-04-24T07:24:58;14.40;99.90
23385;DHT22;11865;45.394;10.978;2023-04-24T07:27:26;14.50;99.90
23385;DHT22;11865;45.394;10.978;2023-04-24T07:29:53;14.50;99.90
23385;DHT22;11865;45.394;10.978;2023-04-24T07:32:21;14.50;99.90
23385;DHT22;11865;45.394;10.978;2023-04-24T07:34:48;14.60;99.90
23385;DHT22;11865;45.394;10.978;2023-04-24T07:37:15;14.70;99.90
23385;DHT22;11865;45.394;10.978;2023-04-24T07:39:43;14.70;99.90
23385;DHT22;11865;45.394;10.978;2023-04-24T07:42:11;14.70;99.90
23385;DHT22;11865;45.394;10.978;2023-04-24T07:44:38;14.80;99.90
23385;DHT22;11865;45.394;10.978;2023-04-24T07:47:06;14.90;99.90
23385;DHT22;11865;45.394;10.978;2023-04-24T07:49:33;15.00;99.90
23385;DHT22;11865;45.394;10.978;2023-04-24T07:52:02;15.10;99.90
23385;DHT22;11865;45.394;10.978;2023-04-24T07:54:29;15.30;99.90
23385;DHT22;11865;45.394;10.978;2023-04-24T07:56:57;15.40;99.90
23385;DHT22;11865;45.394;10.978;2023-04-24T07:59:24;15.60;99.90
23385;DHT22;11865;45.394;10.978;2023-04-24T08:01:52;15.60;99.90
23385;DHT22;11865;45.394;10.978;2023-04-24T08:04:19;15.80;99.90
23385;DHT22;11865;45.394;10.978;2023-04-24T08:06:48;15.80;99.90
23385;DHT22;11865;45.394;10.978;2023-04-24T08:09:15;16.00;99.90
23385;DHT22;11865;45.394;10.978;2023-04-24T08:11:43;16.00;99.90
23385;DHT22;11865;45.394;10.978;2023-04-24T08:14:11;16.20;99.90
23385;DHT22;11865;45.394;10.978;2023-04-24T08:16:40;16.40;99.90
23385;DHT22;11865;45.394;10.978;2023-04-24T08:19:08;16.50;99.90
23385;DHT22;11865;45.394;10.978;2023-04-24T08:21:35;16.60;99.90
23385;DHT22;11865;45.394;10.978;2023-04-24T08:24:03;16.70;99.90
23385;DHT22;11865;45.394;10.978;2023-04-24T08:26:34;16.80;99.90
23385;DHT22;11865;45.394;10.978;2023-04-24T08:29:01;16.70;99.90
23385;DHT22;11865;45.394;10.978;2023-04-24T08:31:29;16.50;99.90
23385;DHT22;11865;45.394;10.978;2023-04-24T08:33:56;16.50;99.70
23385;DHT22;11865;45.394;10.978;2023-04-24T08:36:24;16.50;99.90
23385;DHT22;11865;45.394;10.978;2023-04-24T08:39:09;16.50;99.90
23385;DHT22;11865;45.394;10.978;2023-04-24T08:41:37;16.80;99.90
23385;DHT22;11865;45.394;10.978;2023-04-24T08:44:06;16.80;99.90
23385;DHT22;11865;45.394;10.978;2023-04-24T08:46:37;16.90;99.90
23385;DHT22;11865;45.394;10.978;2023-04-24T08:49:04;16.80;99.90
23385;DHT22;11865;45.394;10.978;2023-04-24T08:51:32;16.80;99.90
23385;DHT22;11865;45.394;10.978;2023-04-24T08:54:00;16.60;99.90
23385;DHT22;11865;45.394;10.978;2023-04-24T08:56:29;16.60;99.90
23385;DHT22;11865;45.394;10.978;2023-04-24T08:58:59;16.90;99.90
23385;DHT22;11865;45.394;10.978;2023-04-24T09:01:26;17.00;99.90
23385;DHT22;11865;45.394;10.978;2023-04-24T09:03:56;16.90;99.90
23385;DHT22;11865;45.394;10.978;2023-04-24T09:06:25;16.80;99.90
23385;DHT22;11865;45.394;10.978;2023-04-24T09:08:54;16.80;99.90
23385;DHT22;11865;45.394;10.978;2023-04-24T09:11:24;16.80;99.90
23385;DHT22;11865;45.394;10.978;2023-04-24T09:13:53;16.70;99.90
23385;DHT22;11865;45.394;10.978;2023-04-24T09:16:20;17.00;99.90
23385;DHT22;11865;45.394;10.978;2023-04-24T09:18:51;17.00;99.90
23385;DHT22;11865;45.394;10.978;2023-04-24T09:21:21;16.90;99.90
23385;DHT22;11865;45.394;10.978;2023-04-24T09:23:58;17.40;99.90
23385;DHT22;11865;45.394;10.978;2023-04-24T09:26:29;17.30;99.90
23385;DHT22;11865;45.394;10.978;2023-04-24T09:28:59;16.90;99.90
23385;DHT22;11865;45.394;10.978;2023-04-24T09:31:28;17.10;99.90
23385;DHT22;11865;45.394;10.978;2023-04-24T09:33:59;17.30;99.90
23385;DHT22;11865;45.394;10.978;2023-04-24T09:36:39;17.20;99.90
23385;DHT22;11865;45.394;10.978;2023-04-24T09:39:10;17.10;99.90
23385;DHT22;11865;45.394;10.978;2023-04-24T09:44:22;17.30;99.90
23385;DHT22;11865;45.394;10.978;2023-04-24T09:46:59;17.10;99.90
23385;DHT22;11865;45.394;10.978;2023-04-24T09:49:29;17.30;99.90
23385;DHT22;11865;45.394;10.978;2023-04-24T09:52:05;17.30;99.90
23385;DHT22;11865;45.394;10.978;2023-04-24T09:54:33;17.40;99.90
23385;DHT22;11865;45.394;10.978;2023-04-24T09:57:01;17.60;99.90
23385;DHT22;11865;45.394;10.978;2023-04-24T09:59:29;18.10;99.90
23385;DHT22;11865;45.394;10.978;2023-04-24T10:01:57;18.30;99.90
23385;DHT22;11865;45.394;10.978;2023-04-24T10:04:27;18.30;99.90
23385;DHT22;11865;45.394;10.978;2023-04-24T10:06:56;18.20;99.90
23385;DHT22;11865;45.394;10.978;2023-04-24T10:09:26;18.60;99.30
23385;DHT22;11865;45.394;10.978;2023-04-24T10:11:54;18.60;99.10
23385;DHT22;11865;45.394;10.978;2023-04-24T10:14:25;18.40;99.90
23385;DHT22;11865;45.394;10.978;2023-04-24T10:16:54;18.40;99.20
23385;DHT22;11865;45.394;10.978;2023-04-24T10:19:25;18.60;98.90
23385;DHT22;11865;45.394;10.978;2023-04-24T10:21:53;18.60;97.30
23385;DHT22;11865;45.394;10.978;2023-04-24T10:24:23;18.60;97.70
23385;DHT22;11865;45.394;10.978;2023-04-24T10:26:50;18.60;98.70
23385;DHT22;11865;45.394;10.978;2023-04-24T10:29:18;18.70;97.30
23385;DHT22;11865;45.394;10.978;2023-04-24T10:31:46;18.80;99.00
23385;DHT22;11865;45.394;10.978;2023-04-24T10:34:16;18.90;98.10
23385;DHT22;11865;45.394;10.978;2023-04-24T10:36:51;18.90;98.00
23385;DHT22;11865;45.394;10.978;2023-04-24T10:39:22;19.10;98.30
23385;DHT22;11865;45.394;10.978;2023-04-24T10:41:54;19.20;98.70
23385;DHT22;11865;45.394;10.978;2023-04-24T10:44:25;19.10;97.90
23385;DHT22;11865;45.394;10.978;2023-04-24T10:46:55;19.00;98.70
23385;DHT22;11865;45.394;10.978;2023-04-24T10:49:30;19.10;99.30
23385;DHT22;11865;45.394;10.978;2023-04-24T10:52:03;19.20;97.90
23385;DHT22;11865;45.394;10.978;2023-04-24T10:54:44;18.90;99.90
23385;DHT22;11865;45.394;10.978;2023-04-24T10:59:51;19.30;98.90
23385;DHT22;11865;45.394;10.978;2023-04-24T11:02:36;19.00;98.60
23385;DHT22;11865;45.394;10.978;2023-04-24T11:05:04;19.30;98.50
23385;DHT22;11865;45.394;10.978;2023-04-24T11:10:46;19.60;99.60
23385;DHT22;11865;45.394;10.978;2023-04-24T11:13:17;19.90;98.00
23385;DHT22;11865;45.394;10.978;2023-04-24T11:19:01;19.50;98.60
23385;DHT22;11865;45.394;10.978;2023-04-24T11:29:22;19.70;95.80
23385;DHT22;11865;45.394;10.978;2023-04-24T11:31:52;19.70;96.50
23385;DHT22;11865;45.394;10.978;2023-04-24T11:34:19;19.90;95.80
23385;DHT22;11865;45.394;10.978;2023-04-24T11:36:47;20.10;95.60
23385;DHT22;11865;45.394;10.978;2023-04-24T11:39:15;20.10;94.10
23385;DHT22;11865;45.394;10.978;2023-04-24T11:41:42;20.20;95.10
23385;DHT22;11865;45.394;10.978;2023-04-24T11:44:10;20.30;94.90
23385;DHT22;11865;45.394;10.978;2023-04-24T11:46:38;20.30;93.80
23385;DHT22;11865;45.394;10.978;2023-04-24T11:49:07;20.40;96.00
23385;DHT22;11865;45.394;10.978;2023-04-24T11:51:35;20.50;92.80
23385;DHT22;11865;45.394;10.978;2023-04-24T11:54:17;20.40;94.60
23385;DHT22;11865;45.394;10.978;2023-04-24T11:56:46;20.50;95.40
23385;DHT22;11865;45.394;10.978;2023-04-24T11:59:14;20.60;94.40
23385;DHT22;11865;45.394;10.978;2023-04-24T12:01:45;20.30;95.20
23385;DHT22;11865;45.394;10.978;2023-04-24T12:04:14;20.40;95.60
23385;DHT22;11865;45.394;10.978;2023-04-24T12:07:02;20.30;95.20
23385;DHT22;11865;45.394;10.978;2023-04-24T12:09:43;20.40;95.50
23385;DHT22;11865;45.394;10.978;2023-04-24T12:12:16;20.50;96.00
23385;DHT22;11865;45.394;10.978;2023-04-24T12:17:14;20.00;94.60
23385;DHT22;11865;45.394;10.978;2023-04-24T12:19:47;20.50;95.00
23385;DHT22;11865;45.394;10.978;2023-04-24T12:22:14;20.50;93.90
23385;DHT22;11865;45.394;10.978;2023-04-24T12:25:02;20.20;94.70
23385;DHT22;11865;45.394;10.978;2023-04-24T12:27:31;20.30;93.30
23385;DHT22;11865;45.394;10.978;2023-04-24T12:30:01;20.30;95.40
23385;DHT22;11865;45.394;10.978;2023-04-24T12:32:28;20.30;95.10
23385;DHT22;11865;45.394;10.978;2023-04-24T12:34:56;20.20;94.60
23385;DHT22;11865;45.394;10.978;2023-04-24T12:37:25;20.40;93.30
23385;DHT22;11865;45.394;10.978;2023-04-24T12:40:09;20.50;93.40
23385;DHT22;11865;45.394;10.978;2023-04-24T12:42:48;20.60;94.40
23385;DHT22;11865;45.394;10.978;2023-04-24T12:45:17;20.80;94.20
23385;DHT22;11865;45.394;10.978;2023-04-24T12:47:46;20.50;93.20
23385;DHT22;11865;45.394;10.978;2023-04-24T12:50:14;20.60;94.20
23385;DHT22;11865;45.394;10.978;2023-04-24T12:52:43;20.40;92.10
23385;DHT22;11865;45.394;10.978;2023-04-24T12:55:11;20.50;91.40
23385;DHT22;11865;45.394;10.978;2023-04-24T12:57:40;20.40;91.40
23385;DHT22;11865;45.394;10.978;2023-04-24T13:00:08;20.30;92.10
23385;DHT22;11865;45.394;10.978;2023-04-24T13:02:36;20.50;91.70
23385;DHT22;11865;45.394;10.978;2023-04-24T13:05:05;20.50;91.80
23385;DHT22;11865;45.394;10.978;2023-04-24T13:07:33;20.50;92.10
23385;DHT22;11865;45.394;10.978;2023-04-24T13:10:00;20.50;92.20
23385;DHT22;11865;45.394;10.978;2023-04-24T13:12:28;20.60;90.70
23385;DHT22;11865;45.394;10.978;2023-04-24T13:14:55;20.60;89.20
23385;DHT22;11865;45.394;10.978;2023-04-24T13:17:23;20.40;88.60
23385;DHT22;11865;45.394;10.978;2023-04-24T13:19:51;20.20;91.60
23385;DHT22;11865;45.394;10.978;2023-04-24T13:22:18;20.30;91.90
23385;DHT22;11865;45.394;10.978;2023-04-24T13:24:46;20.40;92.70
23385;DHT22;11865;45.394;10.978;2023-04-24T13:27:16;20.20;93.10
23385;DHT22;11865;45.394;10.978;2023-04-24T13:29:43;19.90;91.40
23385;DHT22;11865;45.394;10.978;2023-04-24T13:32:11;20.00;93.40
23385;DHT22;11865;45.394;10.978;2023-04-24T13:34:39;19.90;92.70
23385;DHT22;11865;45.394;10.978;2023-04-24T13:37:06;20.10;94.10
23385;DHT22;11865;45.394;10.978;2023-04-24T13:39:35;20.20;92.50
23385;DHT22;11865;45.394;10.978;2023-04-24T13:42:03;20.50;93.50
23385;DHT22;11865;45.394;10.978;2023-04-24T13:44:31;20.90;93.20
23385;DHT22;11865;45.394;10.978;2023-04-24T13:46:58;21.10;93.50
23385;DHT22;11865;45.394;10.978;2023-04-24T13:49:27;21.20;94.00
23385;DHT22;11865;45.394;10.978;2023-04-24T13:51:55;21.30;92.30
23385;DHT22;11865;45.394;10.978;2023-04-24T13:54:23;21.10;92.50
23385;DHT22;11865;45.394;10.978;2023-04-24T13:56:53;21.00;92.60
23385;DHT22;11865;45.394;10.978;2023-04-24T13:59:20;21.10;91.70
23385;DHT22;11865;45.394;10.978;2023-04-24T14:01:48;21.10;91.10
23385;DHT22;11865;45.394;10.978;2023-04-24T14:04:16;21.10;91.00
23385;DHT22;11865;45.394;10.978;2023-04-24T14:06:44;20.90;91.80
23385;DHT22;11865;45.394;10.978;2023-04-24T14:09:12;20.80;87.90
23385;DHT22;11865;45.394;10.978;2023-04-24T14:11:40;20.90;82.10
23385;DHT22;11865;45.394;10.978;2023-04-24T14:14:07;20.90;90.70
23385;DHT22;11865;45.394;10.978;2023-04-24T14:16:35;20.90;90.20
23385;DHT22;11865;45.394;10.978;2023-04-24T14:19:03;20.90;91.50
23385;DHT22;11865;45.394;10.978;2023-04-24T14:21:32;21.10;92.20
23385;DHT22;11865;45.394;10.978;2023-04-24T14:24:00;20.90;94.80
23385;DHT22;11865;45.394;10.978;2023-04-24T14:26:27;20.90;92.80
23385;DHT22;11865;45.394;10.978;2023-04-24T14:28:55;20.70;93.00
23385;DHT22;11865;45.394;10.978;2023-04-24T14:31:37;20.70;93.30
23385;DHT22;11865;45.394;10.978;2023-04-24T14:34:04;20.60;93.90
23385;DHT22;11865;45.394;10.978;2023-04-24T14:36:32;20.40;95.00
23385;DHT22;11865;45.394;10.978;2023-04-24T14:38:59;20.50;94.80
23385;DHT22;11865;45.394;10.978;2023-04-24T14:41:27;20.60;95.00
23385;DHT22;11865;45.394;10.978;2023-04-24T14:43:54;20.60;93.70
23385;DHT22;11865;45.394;10.978;2023-04-24T14:46:22;20.50;95.00
23385;DHT22;11865;45.394;10.978;2023-04-24T14:48:49;20.50;93.80
23385;DHT22;11865;45.394;10.978;2023-04-24T14:51:17;20.50;95.70
23385;DHT22;11865;45.394;10.978;2023-04-24T14:53:44;20.60;93.30
23385;DHT22;11865;45.394;10.978;2023-04-24T14:56:14;20.60;93.00
23385;DHT22;11865;45.394;10.978;2023-04-24T14:58:42;20.60;93.90
23385;DHT22;11865;45.394;10.978;2023-04-24T15:01:10;20.70;93.40
23385;DHT22;11865;45.394;10.978;2023-04-24T15:03:38;20.80;93.40
23385;DHT22;11865;45.394;10.978;2023-04-24T15:06:05;21.00;95.50
23385;DHT22;11865;45.394;10.978;2023-04-24T15:08:33;20.90;95.60
23385;DHT22;11865;45.394;10.978;2023-04-24T15:11:01;20.90;95.90
23385;DHT22;11865;45.394;10.978;2023-04-24T15:13:28;21.10;94.50
23385;DHT22;11865;45.394;10.978;2023-04-24T15:15:56;21.00;94.70
23385;DHT22;11865;45.394;10.978;2023-04-24T15:18:23;21.00;95.10
23385;DHT22;11865;45.394;10.978;2023-04-24T15:20:51;21.10;95.10
23385;DHT22;11865;45.394;10.978;2023-04-24T15:23:18;21.10;95.90
23385;DHT22;11865;45.394;10.978;2023-04-24T15:25:46;21.10;96.00
23385;DHT22;11865;45.394;10.978;2023-04-24T15:28:13;21.00;96.40
23385;DHT22;11865;45.394;10.978;2023-04-24T15:30:42;20.90;95.30
23385;DHT22;11865;45.394;10.978;2023-04-24T15:33:09;20.60;97.00
23385;DHT22;11865;45.394;10.978;2023-04-24T15:35:37;20.60;96.90
23385;DHT22;11865;45.394;10.978;2023-04-24T15:38:04;20.50;96.70
23385;DHT22;11865;45.394;10.978;2023-04-24T15:40:32;20.30;96.50
23385;DHT22;11865;45.394;10.978;2023-04-24T15:42:59;20.10;96.90
23385;DHT22;11865;45.394;10.978;2023-04-24T15:45:27;20.00;93.50
23385;DHT22;11865;45.394;10.978;2023-04-24T15:47:55;19.90;84.70
23385;DHT22;11865;45.394;10.978;2023-04-24T15:50:22;19.40;90.50